This is the latest recevied weather packets stored in our database for station/object VK2ZAZ-10. If no packets are shown the sender has not sent any weather packets the latest 1 day(s).
| Time | Temp. | Humidity | Pressure | Rain* | Wind** | Luminosity | Snow |
|---|---|---|---|---|---|---|---|
| 1778111068 | 16.67° C | 46% | 1016.6 hPa | - | - | - | - |
| 1778105668 | 14.44° C | 50% | 1016.8 hPa | - | - | - | - |
| 1778093067 | 16.67° C | 46% | 1013.6 hPa | - | - | - | - |
| 1778091269 | 16.67° C | 46% | 1013.6 hPa | - | - | - | - |
| 1778087667 | 17.22° C | 44% | 1013.5 hPa | - | - | - | - |
| 1778085868 | 17.22° C | 44% | 1013.9 hPa | - | - | - | - |
| 1778076866 | 17.22° C | 53% | 1014.6 hPa | - | - | - | - |
| 1778071466 | 17.78° C | 53% | 1015 hPa | - | - | - | - |
| 1778067866 | 18.33° C | 51% | 1015.7 hPa | - | - | - | - |
| 1778066066 | 18.89° C | 51% | 1015.6 hPa | - | - | - | - |
| 1778064266 | 19.44° C | 51% | 1016 hPa | - | - | - | - |
| 1778060666 | 19.44° C | 53% | 1016 hPa | - | - | - | - |
| 1778051665 | 21.11° C | 54% | 1016.5 hPa | - | - | - | - |
| 1778049865 | 21.11° C | 53% | 1016.6 hPa | - | - | - | - |
| 1778048065 | 21.11° C | 52% | 1017.2 hPa | - | - | - | - |
| 1778046265 | 21.11° C | 52% | 1017.5 hPa | - | - | - | - |
| 1778044465 | 21.11° C | 51% | 1017.7 hPa | - | - | - | - |
| 1778042665 | 21.11° C | 51% | 1018.1 hPa | - | - | - | - |
| 1778040865 | 21.11° C | 51% | 1018.4 hPa | - | - | - | - |
| 1778039065 | 21.11° C | 50% | 1018.8 hPa | - | - | - | - |
| 1778037265 | 21.11° C | 51% | 1019.4 hPa | - | - | - | - |
| 1778035464 | 20.56° C | 52% | 1020 hPa | - | - | - | - |
| 1778033666 | 20° C | 52% | 1020.7 hPa | - | - | - | - |
| 1778031864 | 20° C | 51% | 1021.5 hPa | - | - | - | - |
| 1778030064 | 19.44° C | 50% | 1022.1 hPa | - | - | - | - |
* Rain since midnight (hover to see other rain measurements)
** Current wind speed in m/s (hover to see current wind gust speed)